< Typhoon 201917 2019 Season Typhoon 201919 >
Typhoon 201918 (MITAG)
General InformationTrack Information on Google MapsDetailed Wind InformationForecast History on Google MapsAccess Analytics MapList of All Images || NewsDisaster Info.WeblogTrackbackTyphoon FrontTwiphoonTyphoon Now!Typhoon ImaginationJMA Disaster Info. XMLResourceGoogle EarthGE AnimationAtom FeedGeoJSON
Detalied Best Track (Time Zone = UTC)
Year Month Day Hour Lat. Long. Pressure (hPa) Wind (kt) Class Image Chart
2019 9 26 12 13.0 143.5 1010 30 2 Image Chart
2019 9 26 15 13.3 142.6 1008 30 2 Image Chart
2019 9 26 18 13.5 141.7 1008 30 2 Image Chart
2019 9 26 21 12.7 140.1 1008 30 2 Image Chart
2019 9 27 00 12.8 138.9 1008 30 2 Image Chart
2019 9 27 03 13.4 138.2 1008 30 2 Image Chart
2019 9 27 06 13.6 137.6 1006 30 2 Image Chart
2019 9 27 09 13.9 136.6 1006 30 2 Image Chart
2019 9 27 12 14.2 136.0 1006 30 2 Image Chart
2019 9 27 15 14.7 135.2 1006 30 2 Image Chart
2019 9 27 18 14.9 134.5 1006 30 2 Image Chart
2019 9 27 21 15.4 133.5 1006 30 2 Image Chart
2019 9 28 00 15.4 132.1 1002 35 3 Image Chart
2019 9 28 03 16.7 131.5 1002 35 3 Image Chart
2019 9 28 06 17.1 130.7 1000 35 3 Image Chart
2019 9 28 09 17.4 129.9 1000 35 3 Image Chart
2019 9 28 12 17.6 129.2 996 45 3 Image Chart
2019 9 28 15 17.8 128.5 996 45 3 Image Chart
2019 9 28 18 17.8 127.9 992 50 4 Image Chart
2019 9 28 21 18.0 127.4 992 50 4 Image Chart
2019 9 29 00 18.1 126.8 985 55 4 Image Chart
2019 9 29 03 18.7 126.2 985 55 4 Image Chart
2019 9 29 06 19.2 125.9 980 60 4 Image Chart
2019 9 29 09 19.7 125.4 975 65 5 Image Chart
2019 9 29 12 20.2 124.8 975 65 5 Image Chart
2019 9 29 15 20.7 124.1 975 65 5 Image Chart
2019 9 29 18 20.9 123.6 975 65 5 Image Chart
2019 9 29 21 21.3 123.3 975 65 5 Image Chart
2019 9 30 00 21.7 123.0 975 65 5 Image Chart
2019 9 30 03 22.2 122.9 970 70 5 Image Chart
2019 9 30 06 22.9 122.9 970 70 5 Image Chart
2019 9 30 09 23.7 122.9 970 70 5 Image Chart
2019 9 30 12 24.6 122.9 965 75 5 Image Chart
2019 9 30 15 25.4 122.8 965 75 5 Image Chart
2019 9 30 18 26.2 122.5 965 75 5 Image Chart
2019 9 30 21 27.1 122.5 965 75 5 Image Chart
2019 10 1 00 27.5 122.5 970 70 5 Image Chart
2019 10 1 03 27.9 122.2 970 70 5 Image Chart
2019 10 1 06 28.6 122.2 980 60 4 Image Chart
2019 10 1 09 29.3 122.3 980 60 4 Image Chart
2019 10 1 12 30.0 122.5 980 60 4 Image Chart
2019 10 1 15 30.2 122.5 980 60 4 Image Chart
2019 10 1 18 30.6 122.8 985 55 4 Image Chart
2019 10 1 21 31.2 123.2 985 55 4 Image Chart
2019 10 2 00 32.0 124.0 985 50 4 Image Chart
2019 10 2 03 32.6 124.1 985 50 4 Image Chart
2019 10 2 06 33.3 124.7 985 50 4 Image Chart
2019 10 2 09 33.8 125.3 985 50 4 Image Chart
2019 10 2 12 34.3 126.4 990 45 3 Image Chart
2019 10 2 15 34.8 127.1 990 45 3 Image Chart
2019 10 2 18 35.8 128.2 994 40 3 Image Chart
2019 10 2 21 37.0 129.4 994 40 3 Image Chart
2019 10 3 00 37.7 130.3 992 40 3 Image Chart
2019 10 3 03 37.7 130.8 990 40 3 Image Chart
2019 10 3 06 38.0 131.0 988 45 6 Image Chart
Japan Meteorological Agency Best Track Data | Correction Date : 2019-10-03
< Typhoon 201917 2019 Season Typhoon 201919 >

Help